METAR Data
IDs: Format: Raw Decoded Include TAF

Data at: 0314 UTC 24 Jun 2021

METAR for:KILN (Wilmington Arpt, OH, US)
Text:KILN 240254Z AUTO 12005KT 10SM CLR 17/11 A3017 RMK AO2 SLP215 T01720111 55001
Temperature: 17.2°C ( 63°F)
Dewpoint: 11.1°C ( 52°F) [RH = 67%]
Pressure (altimeter):30.17 inches Hg (1021.8 mb) [Sea level pressure: 1021.5 mb]
Winds:from the ESE (120 degrees) at 6 MPH (5 knots; 2.6 m/s)
Visibility:10 or more sm (16+ km)
Ceiling:at least 12,000 feet AGL
Clouds:sky clear below 12,000 feet AGL
QC Flag:automated observation with no human augmentation